Terminal Aerodrome Forecast
Issued by NWS

Home | Current Version | Previous Version | Text Only | Print | Product List | Glossary On
Versions: 1 2 3 4 5 6 7 8 9 10 11 12 13 14
000
FTUS42 KMLB 171120
TAFLEE
TAF
KLEE 171120Z 1712/1812 01006KT P6SM SKC
     FM171500 05007KT P6SM FEW035
     FM180000 VRB04KT P6SM SKC=

USA.gov is the U.S. government's official web portal to all federal, state and local government web resources and services.